createdAt,value
2023-01-12T00:02:06.658Z,6.11
2023-01-12T00:04:35.733Z,6.02
2023-01-12T00:07:03.970Z,6.14
2023-01-12T00:09:31.881Z,6.23
2023-01-12T00:12:00.051Z,6.28
2023-01-12T00:14:27.990Z,6.20
2023-01-12T00:16:55.870Z,6.32
2023-01-12T00:19:25.354Z,6.45
2023-01-12T00:21:59.572Z,6.29
2023-01-12T00:24:29.273Z,6.37
2023-01-12T00:26:58.666Z,6.43
2023-01-12T00:29:27.564Z,6.48
2023-01-12T00:32:00.890Z,6.52
2023-01-12T00:34:30.595Z,6.47
2023-01-12T00:37:00.832Z,6.64
2023-01-12T00:39:28.754Z,6.72
2023-01-12T00:42:16.768Z,6.87
2023-01-12T00:45:02.154Z,6.93
2023-01-12T00:47:30.061Z,7.02
2023-01-12T00:49:59.264Z,7.10
2023-01-12T00:52:31.427Z,7.07
2023-01-12T00:55:00.403Z,7.18
2023-01-12T00:57:28.792Z,7.18
2023-01-12T00:59:59.363Z,7.22
2023-01-12T01:02:27.683Z,7.25
2023-01-12T01:04:55.829Z,7.29
2023-01-12T01:07:25.157Z,7.37
2023-01-12T01:09:52.950Z,7.44
2023-01-12T01:12:20.915Z,7.29
2023-01-12T01:14:49.155Z,7.47
2023-01-12T01:17:17.029Z,7.39
2023-01-12T01:19:44.937Z,7.38
2023-01-12T01:22:13.490Z,7.41
2023-01-12T01:24:43.272Z,7.39
2023-01-12T01:27:11.253Z,7.45
2023-01-12T01:29:38.995Z,7.63
2023-01-12T01:32:07.538Z,7.64
2023-01-12T01:34:35.742Z,7.64
2023-01-12T01:37:04.107Z,7.69
2023-01-12T01:39:31.874Z,7.72
2023-01-12T01:42:01.504Z,7.82
2023-01-12T01:44:51.692Z,7.81
2023-01-12T01:47:31.243Z,7.74
2023-01-12T01:50:03.033Z,7.81
2023-01-12T01:52:34.622Z,7.85
2023-01-12T01:55:08.086Z,7.93
2023-01-12T01:57:43.845Z,7.90
2023-01-12T02:00:13.876Z,7.97
2023-01-12T02:02:44.388Z,7.99
2023-01-12T02:05:13.585Z,8.08
2023-01-12T02:07:42.101Z,8.06
2023-01-12T02:10:11.049Z,8.15
2023-01-12T02:12:58.018Z,8.14
2023-01-12T02:15:46.882Z,8.27
2023-01-12T02:18:22.695Z,8.25
2023-01-12T02:21:07.418Z,8.18
2023-01-12T02:24:16.469Z,8.23
2023-01-12T02:27:12.946Z,8.20
2023-01-12T02:30:16.205Z,8.23
2023-01-12T02:32:55.398Z,8.26
2023-01-12T02:35:28.261Z,8.15
2023-01-12T02:38:04.760Z,8.32
2023-01-12T02:40:37.787Z,8.34
2023-01-12T02:43:13.500Z,8.37
2023-01-12T02:45:48.136Z,8.33
2023-01-12T02:48:23.238Z,8.40
2023-01-12T02:50:58.575Z,8.29
2023-01-12T02:53:36.057Z,8.29
2023-01-12T02:56:08.663Z,8.34
2023-01-12T02:58:39.691Z,8.30
2023-01-12T03:01:10.584Z,8.30
2023-01-12T03:03:40.838Z,8.33
2023-01-12T03:06:09.963Z,8.29
2023-01-12T03:08:40.277Z,8.34
2023-01-12T03:11:13.975Z,8.33
2023-01-12T03:13:46.481Z,8.36
2023-01-12T03:16:17.668Z,8.41
2023-01-12T03:18:51.787Z,8.42
2023-01-12T03:21:27.632Z,8.40
2023-01-12T03:24:03.601Z,8.40
2023-01-12T03:26:34.635Z,8.36
2023-01-12T03:29:06.704Z,8.42
2023-01-12T03:31:35.158Z,8.33
2023-01-12T03:34:06.679Z,8.41
2023-01-12T03:36:46.646Z,8.35
2023-01-12T03:39:21.509Z,8.39
2023-01-12T03:41:57.347Z,8.40
2023-01-12T03:44:32.388Z,8.45
2023-01-12T03:47:04.748Z,8.35
2023-01-12T03:49:39.492Z,8.41
2023-01-12T03:52:11.041Z,8.44
2023-01-12T03:54:41.638Z,8.36
2023-01-12T03:57:12.105Z,8.43
2023-01-12T03:59:40.936Z,8.43
2023-01-12T04:02:08.712Z,8.56
2023-01-12T04:04:37.842Z,8.49
2023-01-12T04:07:05.739Z,8.41
2023-01-12T04:09:33.639Z,8.53
2023-01-12T04:12:21.378Z,8.41
2023-01-12T04:14:50.089Z,8.48
2023-01-12T04:17:24.170Z,8.58
2023-01-12T04:19:53.620Z,8.49
2023-01-12T04:22:39.008Z,8.56
2023-01-12T04:25:09.510Z,8.58
2023-01-12T04:27:37.742Z,8.57
2023-01-12T04:30:06.296Z,8.64
2023-01-12T04:32:34.103Z,8.64
2023-01-12T04:35:03.235Z,8.51
2023-01-12T04:37:32.852Z,8.56
2023-01-12T04:40:00.609Z,8.59
2023-01-12T04:42:46.212Z,8.57
2023-01-12T04:45:13.978Z,8.65
2023-01-12T04:47:41.745Z,8.63
2023-01-12T04:50:12.020Z,8.62
2023-01-12T04:52:39.895Z,8.66
2023-01-12T04:55:08.450Z,8.58
2023-01-12T04:57:36.537Z,8.67
2023-01-12T05:00:05.521Z,8.63
2023-01-12T05:02:33.393Z,8.57
2023-01-12T05:05:01.164Z,8.65
2023-01-12T05:07:30.309Z,8.64
2023-01-12T05:10:30.075Z,8.70
2023-01-12T05:12:58.008Z,8.73
2023-01-12T05:15:25.892Z,8.74
2023-01-12T05:17:54.670Z,8.65
2023-01-12T05:20:22.648Z,8.72
2023-01-12T05:22:52.614Z,8.77
2023-01-12T05:25:20.455Z,8.77
2023-01-12T05:27:48.283Z,8.73
2023-01-12T05:30:16.939Z,8.73
2023-01-12T05:32:45.863Z,8.67
2023-01-12T05:35:13.597Z,8.80
2023-01-12T05:37:41.508Z,8.83
2023-01-12T05:40:12.503Z,8.73
2023-01-12T05:43:00.727Z,8.68
2023-01-12T05:45:28.565Z,8.88
2023-01-12T05:48:02.145Z,8.87
2023-01-12T05:50:30.177Z,8.78
2023-01-12T05:53:10.211Z,8.85
2023-01-12T05:55:40.039Z,8.82
2023-01-12T05:58:08.233Z,8.84
2023-01-12T06:00:36.110Z,8.91
2023-01-12T06:03:04.371Z,8.93
2023-01-12T06:05:32.218Z,8.85
2023-01-12T06:08:00.708Z,8.86
2023-01-12T06:10:28.563Z,8.81
2023-01-12T06:13:15.238Z,8.78
2023-01-12T06:15:43.086Z,8.83
2023-01-12T06:18:11.318Z,8.76
2023-01-12T06:20:41.385Z,8.74
2023-01-12T06:23:09.184Z,8.70
2023-01-12T06:25:37.621Z,8.78
2023-01-12T06:28:07.900Z,8.75
2023-01-12T06:30:35.790Z,8.63
2023-01-12T06:33:04.139Z,8.77
2023-01-12T06:35:33.941Z,8.72
2023-01-12T06:38:02.432Z,8.80
2023-01-12T06:40:30.274Z,8.90
2023-01-12T06:42:58.077Z,8.93
2023-01-12T06:45:27.182Z,8.87
2023-01-12T06:47:57.251Z,8.87
2023-01-12T06:50:27.442Z,8.85
2023-01-12T06:52:56.077Z,8.92
2023-01-12T06:55:23.865Z,8.83
2023-01-12T06:57:51.639Z,8.79
2023-01-12T07:00:20.037Z,8.88
2023-01-12T07:02:51.842Z,8.96
2023-01-12T07:05:19.697Z,8.87
2023-01-12T07:07:49.537Z,8.94
2023-01-12T07:10:20.639Z,8.98
2023-01-12T07:12:50.149Z,8.92
2023-01-12T07:15:18.079Z,9.04
2023-01-12T07:17:45.969Z,9.12
2023-01-12T07:20:15.404Z,9.09
2023-01-12T07:22:43.131Z,9.10
2023-01-12T07:25:11.230Z,9.15
2023-01-12T07:27:39.014Z,9.20
2023-01-12T07:30:07.977Z,9.20
2023-01-12T07:32:35.862Z,9.10
2023-01-12T07:35:06.587Z,9.20
2023-01-12T07:37:35.830Z,9.30
2023-01-12T07:40:03.662Z,9.38
2023-01-12T07:42:33.606Z,9.41
2023-01-12T07:45:03.124Z,9.22
2023-01-12T07:47:30.934Z,9.30
2023-01-12T07:49:58.748Z,9.36
2023-01-12T07:52:26.521Z,9.38
2023-01-12T07:54:58.215Z,9.49
2023-01-12T07:57:26.103Z,9.28
2023-01-12T07:59:53.931Z,9.36
2023-01-12T08:02:21.794Z,9.39
2023-01-12T08:04:49.682Z,9.43
2023-01-12T08:07:17.575Z,9.44
2023-01-12T08:09:45.406Z,9.48
2023-01-12T08:12:14.515Z,9.55
2023-01-12T08:14:42.974Z,9.50
2023-01-12T08:17:15.301Z,9.55
2023-01-12T08:19:46.920Z,9.47
2023-01-12T08:22:19.145Z,9.66
2023-01-12T08:24:51.704Z,9.61
2023-01-12T08:27:25.137Z,9.50
2023-01-12T08:29:55.571Z,9.64
2023-01-12T08:32:24.295Z,9.49
2023-01-12T08:34:54.490Z,9.58
2023-01-12T08:37:26.141Z,9.54
2023-01-12T08:39:54.121Z,9.57
2023-01-12T08:42:26.502Z,9.68
2023-01-12T08:44:55.631Z,9.60
2023-01-12T08:47:27.101Z,9.57
2023-01-12T08:49:55.321Z,9.68
2023-01-12T08:52:26.071Z,9.52
2023-01-12T08:54:53.901Z,9.52
2023-01-12T08:57:23.094Z,9.63
2023-01-12T08:59:51.005Z,9.58
2023-01-12T09:02:19.267Z,9.78
2023-01-12T09:04:47.129Z,9.72
2023-01-12T09:07:17.127Z,9.71
2023-01-12T09:09:44.951Z,9.81
2023-01-12T09:12:12.929Z,9.82
2023-01-12T09:14:44.347Z,9.66
2023-01-12T09:17:12.200Z,9.79
2023-01-12T09:19:40.061Z,9.86
2023-01-12T09:22:07.851Z,9.97
2023-01-12T09:24:35.683Z,9.88
2023-01-12T09:27:03.487Z,9.94
2023-01-12T09:29:31.271Z,9.90
2023-01-12T09:32:00.617Z,9.89
2023-01-12T09:34:28.616Z,9.89
2023-01-12T09:36:57.182Z,10.00
2023-01-12T09:39:28.577Z,9.96
2023-01-12T09:42:15.176Z,10.00
2023-01-12T09:45:11.737Z,10.08
2023-01-12T09:47:50.712Z,10.04
2023-01-12T09:50:23.352Z,10.16
2023-01-12T09:52:56.675Z,10.20
2023-01-12T09:55:27.120Z,10.33
2023-01-12T09:58:13.930Z,10.16
2023-01-12T10:00:41.846Z,10.29
2023-01-12T10:03:25.663Z,10.38
2023-01-12T10:05:58.267Z,10.29
2023-01-12T10:08:33.447Z,10.38
2023-01-12T10:11:15.693Z,10.43
2023-01-12T10:14:02.156Z,10.41
2023-01-12T10:16:38.651Z,10.49
2023-01-12T10:19:14.293Z,10.58
2023-01-12T10:21:42.779Z,10.65
2023-01-12T10:24:13.957Z,10.73
2023-01-12T10:26:43.641Z,10.87
2023-01-12T10:29:13.863Z,10.83
2023-01-12T10:31:41.809Z,10.70
2023-01-12T10:34:13.098Z,10.86
2023-01-12T10:36:44.490Z,10.77
2023-01-12T10:39:31.445Z,10.67
2023-01-12T10:42:38.427Z,10.86
2023-01-12T10:45:18.333Z,10.61
2023-01-12T10:47:46.756Z,10.57
2023-01-12T10:50:28.318Z,10.79
2023-01-12T10:53:02.308Z,10.73
2023-01-12T10:55:33.504Z,10.87
2023-01-12T10:58:01.858Z,10.82
2023-01-12T11:00:30.776Z,10.79
2023-01-12T11:02:58.778Z,10.84
2023-01-12T11:05:35.495Z,10.78
2023-01-12T11:08:04.100Z,10.90
2023-01-12T11:10:35.498Z,10.78
2023-01-12T11:13:05.893Z,10.82
2023-01-12T11:15:39.226Z,10.88
2023-01-12T11:18:33.240Z,10.79
2023-01-12T11:21:05.634Z,10.67
2023-01-12T11:23:40.157Z,10.95
2023-01-12T11:26:16.987Z,10.89
2023-01-12T11:28:48.725Z,10.69
2023-01-12T11:31:22.027Z,10.84
2023-01-12T11:33:57.323Z,10.84
2023-01-12T11:36:31.438Z,10.96
2023-01-12T11:39:04.223Z,11.10
2023-01-12T11:41:39.977Z,11.13
2023-01-12T11:44:16.332Z,11.32
2023-01-12T11:46:47.678Z,11.24
2023-01-12T11:49:19.312Z,11.31
2023-01-12T11:51:51.867Z,11.60
2023-01-12T11:54:20.527Z,11.54
2023-01-12T11:57:04.263Z,11.64
2023-01-12T11:59:41.800Z,11.99
2023-01-12T12:02:29.172Z,12.17
2023-01-12T12:05:07.507Z,11.78
2023-01-12T12:07:49.522Z,11.52
2023-01-12T12:10:23.887Z,11.59
2023-01-12T12:13:17.427Z,11.38
2023-01-12T12:15:56.652Z,11.56
2023-01-12T12:18:39.365Z,11.55
2023-01-12T12:21:16.821Z,11.87
2023-01-12T12:23:58.631Z,11.75
2023-01-12T12:26:30.529Z,11.90
2023-01-12T12:29:27.464Z,11.90
2023-01-12T12:32:09.893Z,11.80
2023-01-12T12:35:01.330Z,11.77
2023-01-12T12:37:42.982Z,11.73
2023-01-12T12:40:22.942Z,11.86
2023-01-12T12:43:19.722Z,11.69
2023-01-12T12:45:54.235Z,11.78
2023-01-12T12:48:28.617Z,11.87
2023-01-12T12:51:04.088Z,11.55
2023-01-12T12:53:35.802Z,11.63
2023-01-12T12:56:07.859Z,11.64
2023-01-12T12:58:46.637Z,11.67
2023-01-12T13:01:43.517Z,11.43
2023-01-12T13:04:14.100Z,11.53
2023-01-12T13:06:45.593Z,11.60
2023-01-12T13:09:40.392Z,11.65
2023-01-12T13:12:33.406Z,11.34
2023-01-12T13:15:26.653Z,11.58
2023-01-12T13:17:56.054Z,11.62
2023-01-12T13:21:02.377Z,11.65
2023-01-12T13:23:48.896Z,11.58
2023-01-12T13:26:46.815Z,11.72
2023-01-12T13:29:51.384Z,11.69
2023-01-12T13:32:43.179Z,11.59
2023-01-12T13:35:58.866Z,11.54
2023-01-12T13:38:48.426Z,11.59
2023-01-12T13:41:41.786Z,11.46
2023-01-12T13:44:14.659Z,11.64
2023-01-12T13:46:47.449Z,11.50
2023-01-12T13:49:31.156Z,11.54
2023-01-12T13:52:01.927Z,11.76
2023-01-12T13:54:30.776Z,11.70
2023-01-12T13:57:00.890Z,11.67
2023-01-12T13:59:30.084Z,11.67
2023-01-12T14:01:59.772Z,11.81
2023-01-12T14:04:45.886Z,11.78
2023-01-12T14:07:28.828Z,11.60
2023-01-12T14:10:08.846Z,11.53
2023-01-12T14:12:51.075Z,11.50
2023-01-12T14:15:46.616Z,11.50
2023-01-12T14:18:18.802Z,11.36
2023-01-12T14:20:55.403Z,11.43
2023-01-12T14:23:28.795Z,11.34
2023-01-12T14:26:22.477Z,11.55
2023-01-12T14:28:51.868Z,11.54
2023-01-12T14:31:27.019Z,11.45
2023-01-12T14:33:58.447Z,11.35
2023-01-12T14:36:29.273Z,11.37
2023-01-12T14:38:59.152Z,11.45
2023-01-12T14:41:47.138Z,11.36
2023-01-12T14:44:38.004Z,11.34
2023-01-12T14:47:06.186Z,11.34
2023-01-12T14:49:36.918Z,11.55
2023-01-12T14:52:24.000Z,11.32
2023-01-12T14:54:54.099Z,11.40
2023-01-12T14:57:25.064Z,11.42
2023-01-12T14:59:53.587Z,11.38
2023-01-12T15:02:32.943Z,11.37
2023-01-12T15:05:04.716Z,11.19
2023-01-12T15:07:36.152Z,11.23
2023-01-12T15:10:25.895Z,11.20
2023-01-12T15:12:55.152Z,11.35
2023-01-12T15:15:24.949Z,11.36
2023-01-12T15:18:12.216Z,11.34
2023-01-12T15:21:03.276Z,11.26
2023-01-12T15:23:51.013Z,11.35
2023-01-12T15:26:19.573Z,11.17
2023-01-12T15:28:48.583Z,11.38
2023-01-12T15:31:21.446Z,11.23
2023-01-12T15:33:49.445Z,11.15
2023-01-12T15:36:18.717Z,11.19
2023-01-12T15:38:48.688Z,11.22
2023-01-12T15:41:19.170Z,11.31
2023-01-12T15:43:47.036Z,11.33
2023-01-12T15:46:20.038Z,11.35
2023-01-12T15:48:47.869Z,11.46
2023-01-12T15:51:16.920Z,11.22
2023-01-12T15:53:46.158Z,10.96
2023-01-12T15:56:16.236Z,11.17
2023-01-12T15:58:44.051Z,11.21
2023-01-12T16:01:16.920Z,11.20
2023-01-12T16:04:09.510Z,10.95
2023-01-12T16:06:34.010Z,10.93
2023-01-12T16:09:03.170Z,10.93
2023-01-12T16:11:30.983Z,11.10
2023-01-12T16:13:58.760Z,10.99
2023-01-12T16:16:29.343Z,10.98
2023-01-12T16:18:59.782Z,11.09
2023-01-12T16:21:29.391Z,11.09
2023-01-12T16:23:57.976Z,10.94
2023-01-12T16:26:28.347Z,10.91
2023-01-12T16:28:58.912Z,10.84
2023-01-12T16:31:27.878Z,10.95
2023-01-12T16:33:55.817Z,10.86
2023-01-12T16:36:23.686Z,10.89
2023-01-12T16:38:51.978Z,10.98
2023-01-12T16:41:22.213Z,10.96
2023-01-12T16:43:52.166Z,10.93
2023-01-12T16:46:20.032Z,10.92
2023-01-12T16:48:48.252Z,10.85
2023-01-12T16:51:19.913Z,10.93
2023-01-12T16:53:48.334Z,10.91
2023-01-12T16:56:17.245Z,10.88
2023-01-12T16:58:48.306Z,10.98
2023-01-12T17:01:21.015Z,10.93
2023-01-12T17:03:50.675Z,10.82
2023-01-12T17:06:21.380Z,10.85
2023-01-12T17:08:49.573Z,11.03
2023-01-12T17:11:20.247Z,10.93
2023-01-12T17:13:52.369Z,10.82
2023-01-12T17:16:23.351Z,10.74
2023-01-12T17:18:51.669Z,10.75
2023-01-12T17:21:20.951Z,10.66
2023-01-12T17:23:48.980Z,10.61
2023-01-12T17:26:19.364Z,10.74
2023-01-12T17:28:48.129Z,10.87
2023-01-12T17:31:19.268Z,10.69
2023-01-12T17:33:50.137Z,10.82
2023-01-12T17:36:19.058Z,10.74
2023-01-12T17:38:47.004Z,10.64
2023-01-12T17:41:30.956Z,10.76
2023-01-12T17:43:59.166Z,10.74
2023-01-12T17:46:27.123Z,10.81
2023-01-12T17:48:58.517Z,10.67
2023-01-12T17:51:26.528Z,10.82
2023-01-12T17:53:54.693Z,10.80
2023-01-12T17:56:22.590Z,10.68
2023-01-12T17:58:50.986Z,10.78
2023-01-12T18:01:19.311Z,10.79
2023-01-12T18:03:47.269Z,10.82
2023-01-12T18:06:25.827Z,10.62
2023-01-12T18:08:56.204Z,10.79
2023-01-12T18:11:24.506Z,10.78
2023-01-12T18:13:52.749Z,10.83
2023-01-12T18:16:21.136Z,10.85
2023-01-12T18:18:52.095Z,10.81
2023-01-12T18:21:23.113Z,10.85
2023-01-12T18:23:53.286Z,10.81
2023-01-12T18:26:25.160Z,10.79
2023-01-12T18:28:53.330Z,10.88
2023-01-12T18:31:23.240Z,10.91
2023-01-12T18:33:52.701Z,10.93
2023-01-12T18:36:23.747Z,10.88
2023-01-12T18:38:54.051Z,10.73
2023-01-12T18:41:40.747Z,10.77
2023-01-12T18:44:09.267Z,10.79
2023-01-12T18:47:11.502Z,10.88
2023-01-12T18:49:40.154Z,10.88
2023-01-12T18:52:30.067Z,10.86
2023-01-12T18:54:58.841Z,10.98
2023-01-12T18:57:28.802Z,11.05
2023-01-12T19:00:00.215Z,10.94
2023-01-12T19:02:29.801Z,10.90
2023-01-12T19:05:16.589Z,11.05
2023-01-12T19:08:03.785Z,10.99
2023-01-12T19:10:33.610Z,11.12
2023-01-12T19:13:18.869Z,10.99
2023-01-12T19:16:04.126Z,10.92
2023-01-12T19:18:31.996Z,10.96
2023-01-12T19:21:23.548Z,11.03
2023-01-12T19:24:09.972Z,11.04
2023-01-12T19:26:55.354Z,11.09
2023-01-12T19:29:23.248Z,11.10
2023-01-12T19:31:51.132Z,11.24
2023-01-12T19:34:19.068Z,11.06
2023-01-12T19:36:46.892Z,11.12
2023-01-12T19:39:23.814Z,11.04
2023-01-12T19:42:09.310Z,11.06
2023-01-12T19:44:37.194Z,11.17
2023-01-12T19:47:05.078Z,11.09
2023-01-12T19:49:33.128Z,11.09
2023-01-12T19:52:01.005Z,11.11
2023-01-12T19:54:31.515Z,11.20
2023-01-12T19:56:59.629Z,11.10
2023-01-12T19:59:28.326Z,11.15
2023-01-12T20:01:56.231Z,11.28
2023-01-12T20:04:24.160Z,11.25
2023-01-12T20:06:53.258Z,11.36
2023-01-12T20:09:21.233Z,11.37
2023-01-12T20:11:54.544Z,11.38
2023-01-12T20:14:22.984Z,11.35
2023-01-12T20:16:50.985Z,11.36
2023-01-12T20:19:19.453Z,11.30
2023-01-12T20:21:49.368Z,11.21
2023-01-12T20:24:17.828Z,11.34
2023-01-12T20:26:46.080Z,11.36
2023-01-12T20:29:15.316Z,11.19
2023-01-12T20:31:44.245Z,11.14
2023-01-12T20:34:12.552Z,11.27
2023-01-12T20:36:40.991Z,11.17
2023-01-12T20:39:11.040Z,11.20
2023-01-12T20:41:39.675Z,11.22
2023-01-12T20:44:07.970Z,11.10
2023-01-12T20:46:37.202Z,11.18
2023-01-12T20:49:05.020Z,11.21
2023-01-12T20:51:32.967Z,11.18
2023-01-12T20:54:02.915Z,11.26
2023-01-12T20:56:31.449Z,11.38
2023-01-12T20:59:00.270Z,11.23
2023-01-12T21:01:28.916Z,11.39
2023-01-12T21:04:00.359Z,11.40
2023-01-12T21:06:28.198Z,11.27
2023-01-12T21:08:55.971Z,11.16
2023-01-12T21:11:23.735Z,11.23
2023-01-12T21:13:51.562Z,11.12
2023-01-12T21:16:22.648Z,11.15
2023-01-12T21:18:50.572Z,11.06
2023-01-12T21:21:19.722Z,11.07
2023-01-12T21:23:47.683Z,11.08
2023-01-12T21:26:16.087Z,11.02
2023-01-12T21:28:43.964Z,11.07
2023-01-12T21:31:13.542Z,11.08
2023-01-12T21:33:41.369Z,11.15
2023-01-12T21:36:13.942Z,11.21
2023-01-12T21:38:46.551Z,11.17
2023-01-12T21:41:15.942Z,11.20
2023-01-12T21:43:42.801Z,10.97
2023-01-12T21:46:11.694Z,11.02
2023-01-12T21:48:41.806Z,11.21
2023-01-12T21:51:12.732Z,11.10
2023-01-12T21:53:41.807Z,10.94
2023-01-12T21:56:13.005Z,11.06
2023-01-12T21:58:40.924Z,10.94
2023-01-12T22:01:10.793Z,10.85
2023-01-12T22:03:41.743Z,10.93
2023-01-12T22:06:11.867Z,10.97
2023-01-12T22:08:41.265Z,10.97
2023-01-12T22:11:12.791Z,10.97
2023-01-12T22:13:40.974Z,10.95
2023-01-12T22:16:10.568Z,11.05
2023-01-12T22:18:39.364Z,11.07
2023-01-12T22:21:09.071Z,10.97
2023-01-12T22:23:38.142Z,11.03
2023-01-12T22:26:08.799Z,11.00
2023-01-12T22:28:40.220Z,10.98
2023-01-12T22:31:09.853Z,11.05
2023-01-12T22:33:38.056Z,11.03
2023-01-12T22:36:07.859Z,11.03
2023-01-12T22:38:35.811Z,11.14
2023-01-12T22:41:07.629Z,11.01
2023-01-12T22:43:40.700Z,11.13
2023-01-12T22:46:17.896Z,11.04
2023-01-12T22:48:49.303Z,11.10
2023-01-12T22:51:17.240Z,11.04
2023-01-12T22:53:45.071Z,11.01
2023-01-12T22:56:12.936Z,10.99
2023-01-12T22:58:41.039Z,11.18
2023-01-12T23:01:10.507Z,11.16
2023-01-12T23:03:39.752Z,11.19
2023-01-12T23:06:11.419Z,11.00
2023-01-12T23:08:39.279Z,11.08
2023-01-12T23:11:09.372Z,11.08
2023-01-12T23:13:37.227Z,11.00
2023-01-12T23:16:07.559Z,11.14
2023-01-12T23:18:37.375Z,11.16
2023-01-12T23:21:10.917Z,10.95
2023-01-12T23:23:39.494Z,11.00
2023-01-12T23:26:09.536Z,11.07
2023-01-12T23:28:41.068Z,11.05
2023-01-12T23:31:14.710Z,11.05
2023-01-12T23:33:43.113Z,11.13
2023-01-12T23:36:15.157Z,11.05
2023-01-12T23:38:43.706Z,10.98
2023-01-12T23:41:13.109Z,10.97
2023-01-12T23:43:41.179Z,11.07
2023-01-12T23:46:09.119Z,11.10
2023-01-12T23:48:39.029Z,11.09
2023-01-12T23:51:07.216Z,11.07
2023-01-12T23:53:36.666Z,11.11
2023-01-12T23:56:06.813Z,11.13
2023-01-12T23:58:35.043Z,11.15
